sensor_id;sensor_type;location;lat;lon;timestamp;P1;durP1;ratioP1;P2;durP2;ratioP2
48891;SDS011;50130;52.150;5.236;2022-11-25T00:01:11;26.1;;;5.7;;
48891;SDS011;50130;52.150;5.236;2022-11-25T00:02:50;26.0;;;5.7;;
48891;SDS011;50130;52.150;5.236;2022-11-25T00:04:28;23.1;;;5.11;;
48891;SDS011;50130;52.150;5.236;2022-11-25T00:06:08;22.7;;;5.5;;
48891;SDS011;50130;52.150;5.236;2022-11-25T00:09:27;26.5;;;5.7;;
48891;SDS011;50130;52.150;5.236;2022-11-25T00:11:03;25.8;;;5.5;;
48891;SDS011;50130;52.150;5.236;2022-11-25T00:12:41;26.2;;;5.7;;
48891;SDS011;50130;52.150;5.236;2022-11-25T00:15:53;21.9;;;4.7;;
48891;SDS011;50130;52.150;5.236;2022-11-25T00:17:29;23.7;;;4.91;;
48891;SDS011;50130;52.150;5.236;2022-11-25T00:19:05;24.3;;;5.4;;
48891;SDS011;50130;52.150;5.236;2022-11-25T00:20:42;24.0;;;5.5;;
48891;SDS011;50130;52.150;5.236;2022-11-25T00:23:54;24.2;;;5.11;;
48891;SDS011;50130;52.150;5.236;2022-11-25T00:25:33;30.5;;;6.6;;
48891;SDS011;50130;52.150;5.236;2022-11-25T00:27:09;23.7;;;5.2;;
48891;SDS011;50130;52.150;5.236;2022-11-25T00:30:23;27.6;;;5.9;;
48891;SDS011;50130;52.150;5.236;2022-11-25T00:31:59;24.5;;;6.2;;
48891;SDS011;50130;52.150;5.236;2022-11-25T00:33:35;27.6;;;5.6;;
48891;SDS011;50130;52.150;5.236;2022-11-25T00:36:48;24.6;;;5.5;;
48891;SDS011;50130;52.150;5.236;2022-11-25T00:38:25;31.5;;;5.8;;
48891;SDS011;50130;52.150;5.236;2022-11-25T00:40:01;32.6;;;5.6;;
48891;SDS011;50130;52.150;5.236;2022-11-25T00:45:47;33.3;;;6.1;;
48891;SDS011;50130;52.150;5.236;2022-11-25T00:48:59;28.0;;;5.4;;
48891;SDS011;50130;52.150;5.236;2022-11-25T00:50:36;28.9;;;5.7;;
48891;SDS011;50130;52.150;5.236;2022-11-25T00:52:12;26.4;;;5.9;;
48891;SDS011;50130;52.150;5.236;2022-11-25T00:56:11;27.3;;;6.0;;
48891;SDS011;50130;52.150;5.236;2022-11-25T00:57:47;27.2;;;5.6;;
48891;SDS011;50130;52.150;5.236;2022-11-25T00:59:24;28.0;;;6.1;;
48891;SDS011;50130;52.150;5.236;2022-11-25T01:01:01;26.2;;;5.9;;
48891;SDS011;50130;52.150;5.236;2022-11-25T01:02:37;25.1;;;5.8;;
48891;SDS011;50130;52.150;5.236;2022-11-25T01:05:49;29.6;;;6.4;;
48891;SDS011;50130;52.150;5.236;2022-11-25T01:07:25;23.8;;;5.7;;
48891;SDS011;50130;52.150;5.236;2022-11-25T01:09:02;29.9;;;6.1;;
48891;SDS011;50130;52.150;5.236;2022-11-25T01:12:15;32.0;;;6.8;;
48891;SDS011;50130;52.150;5.236;2022-11-25T01:13:55;33.21;;;6.3;;
48891;SDS011;50130;52.150;5.236;2022-11-25T01:15:31;23.9;;;6.1;;
48891;SDS011;50130;52.150;5.236;2022-11-25T01:17:11;22.6;;;5.5;;
48891;SDS011;50130;52.150;5.236;2022-11-25T01:20:26;20.41;;;5.4;;
48891;SDS011;50130;52.150;5.236;2022-11-25T01:22:02;27.4;;;6.1;;
48891;SDS011;50130;52.150;5.236;2022-11-25T01:23:38;29.9;;;6.2;;
48891;SDS011;50130;52.150;5.236;2022-11-25T01:26:53;23.4;;;5.4;;
48891;SDS011;50130;52.150;5.236;2022-11-25T01:28:30;32.6;;;6.2;;
48891;SDS011;50130;52.150;5.236;2022-11-25T01:30:08;23.1;;;5.8;;
48891;SDS011;50130;52.150;5.236;2022-11-25T01:33:21;26.3;;;6.0;;
48891;SDS011;50130;52.150;5.236;2022-11-25T01:34:58;24.5;;;6.0;;
48891;SDS011;50130;52.150;5.236;2022-11-25T01:36:34;23.1;;;5.4;;
48891;SDS011;50130;52.150;5.236;2022-11-25T01:38:10;31.0;;;6.8;;
48891;SDS011;50130;52.150;5.236;2022-11-25T01:41:23;19.0;;;4.8;;
48891;SDS011;50130;52.150;5.236;2022-11-25T01:43:00;29.1;;;6.7;;
48891;SDS011;50130;52.150;5.236;2022-11-25T01:44:37;25.8;;;5.8;;
48891;SDS011;50130;52.150;5.236;2022-11-25T01:48:00;31.8;;;6.5;;
48891;SDS011;50130;52.150;5.236;2022-11-25T01:49:45;24.5;;;5.8;;
48891;SDS011;50130;52.150;5.236;2022-11-25T01:51:32;25.1;;;5.5;;
48891;SDS011;50130;52.150;5.236;2022-11-25T01:53:21;24.1;;;5.2;;
48891;SDS011;50130;52.150;5.236;2022-11-25T01:54:59;21.7;;;5.7;;
48891;SDS011;50130;52.150;5.236;2022-11-25T01:58:24;29.2;;;6.1;;
48891;SDS011;50130;52.150;5.236;2022-11-25T02:00:04;21.7;;;5.4;;
48891;SDS011;50130;52.150;5.236;2022-11-25T02:01:44;26.9;;;6.3;;
48891;SDS011;50130;52.150;5.236;2022-11-25T02:03:21;29.6;;;6.2;;
48891;SDS011;50130;52.150;5.236;2022-11-25T02:06:45;26.1;;;5.9;;
48891;SDS011;50130;52.150;5.236;2022-11-25T02:08:27;24.4;;;6.1;;
48891;SDS011;50130;52.150;5.236;2022-11-25T02:10:06;27.9;;;6.5;;
48891;SDS011;50130;52.150;5.236;2022-11-25T02:11:46;21.6;;;6.0;;
48891;SDS011;50130;52.150;5.236;2022-11-25T02:15:01;27.5;;;6.1;;
48891;SDS011;50130;52.150;5.236;2022-11-25T02:16:39;25.1;;;5.8;;
48891;SDS011;50130;52.150;5.236;2022-11-25T02:18:15;21.6;;;5.4;;
48891;SDS011;50130;52.150;5.236;2022-11-25T02:21:38;28.8;;;7.0;;
48891;SDS011;50130;52.150;5.236;2022-11-25T02:23:23;23.4;;;6.3;;
48891;SDS011;50130;52.150;5.236;2022-11-25T02:25:19;22.7;;;5.6;;
48891;SDS011;50130;52.150;5.236;2022-11-25T02:26:57;26.9;;;6.8;;
48891;SDS011;50130;52.150;5.236;2022-11-25T02:28:35;27.5;;;6.8;;
48891;SDS011;50130;52.150;5.236;2022-11-25T02:31:49;26.0;;;6.8;;
48891;SDS011;50130;52.150;5.236;2022-11-25T02:33:26;27.3;;;6.9;;
48891;SDS011;50130;52.150;5.236;2022-11-25T02:35:18;22.5;;;5.7;;
48891;SDS011;50130;52.150;5.236;2022-11-25T02:37:13;26.2;;;6.8;;
48891;SDS011;50130;52.150;5.236;2022-11-25T02:38:53;27.6;;;7.2;;
48891;SDS011;50130;52.150;5.236;2022-11-25T02:42:12;26.9;;;6.5;;
48891;SDS011;50130;52.150;5.236;2022-11-25T02:43:52;25.4;;;6.4;;
48891;SDS011;50130;52.150;5.236;2022-11-25T02:45:34;22.7;;;5.9;;
48891;SDS011;50130;52.150;5.236;2022-11-25T02:47:19;31.3;;;6.8;;
48891;SDS011;50130;52.150;5.236;2022-11-25T02:50:34;31.2;;;7.2;;
48891;SDS011;50130;52.150;5.236;2022-11-25T02:52:10;26.6;;;7.6;;
48891;SDS011;50130;52.150;5.236;2022-11-25T02:53:47;25.2;;;6.7;;
48891;SDS011;50130;52.150;5.236;2022-11-25T02:57:00;28.4;;;6.5;;
48891;SDS011;50130;52.150;5.236;2022-11-25T02:58:37;28.8;;;7.3;;
48891;SDS011;50130;52.150;5.236;2022-11-25T03:00:14;26.1;;;6.6;;
48891;SDS011;50130;52.150;5.236;2022-11-25T03:01:52;28.5;;;7.0;;
48891;SDS011;50130;52.150;5.236;2022-11-25T03:05:04;24.9;;;6.8;;
48891;SDS011;50130;52.150;5.236;2022-11-25T03:06:40;27.8;;;6.8;;
48891;SDS011;50130;52.150;5.236;2022-11-25T03:08:16;31.3;;;7.8;;
48891;SDS011;50130;52.150;5.236;2022-11-25T03:12:28;27.6;;;7.2;;
48891;SDS011;50130;52.150;5.236;2022-11-25T03:14:09;33.3;;;7.7;;
48891;SDS011;50130;52.150;5.236;2022-11-25T03:15:46;24.9;;;6.4;;
48891;SDS011;50130;52.150;5.236;2022-11-25T03:17:23;25.6;;;6.7;;
48891;SDS011;50130;52.150;5.236;2022-11-25T03:19:00;21.1;;;6.0;;
48891;SDS011;50130;52.150;5.236;2022-11-25T03:20:36;31.7;;;7.7;;
48891;SDS011;50130;52.150;5.236;2022-11-25T03:23:49;23.6;;;7.1;;
48891;SDS011;50130;52.150;5.236;2022-11-25T03:25:25;24.9;;;6.8;;
48891;SDS011;50130;52.150;5.236;2022-11-25T03:27:02;24.1;;;6.8;;
48891;SDS011;50130;52.150;5.236;2022-11-25T03:30:16;26.9;;;6.7;;
48891;SDS011;50130;52.150;5.236;2022-11-25T03:31:55;28.3;;;7.5;;
48891;SDS011;50130;52.150;5.236;2022-11-25T03:33:31;27.2;;;7.6;;
48891;SDS011;50130;52.150;5.236;2022-11-25T03:36:46;26.3;;;6.8;;
48891;SDS011;50130;52.150;5.236;2022-11-25T03:38:22;20.7;;;6.6;;
48891;SDS011;50130;52.150;5.236;2022-11-25T03:39:58;23.9;;;8.1;;
48891;SDS011;50130;52.150;5.236;2022-11-25T03:41:34;24.3;;;7.5;;
48891;SDS011;50130;52.150;5.236;2022-11-25T03:44:47;25.1;;;7.6;;
48891;SDS011;50130;52.150;5.236;2022-11-25T03:46:23;30.2;;;8.2;;
48891;SDS011;50130;52.150;5.236;2022-11-25T03:47:59;34.1;;;8.4;;
48891;SDS011;50130;52.150;5.236;2022-11-25T03:51:11;23.4;;;7.5;;
48891;SDS011;50130;52.150;5.236;2022-11-25T03:52:48;29.0;;;8.5;;
48891;SDS011;50130;52.150;5.236;2022-11-25T03:54:24;28.1;;;8.71;;
48891;SDS011;50130;52.150;5.236;2022-11-25T03:57:37;29.8;;;8.9;;
48891;SDS011;50130;52.150;5.236;2022-11-25T03:59:13;24.7;;;8.2;;
48891;SDS011;50130;52.150;5.236;2022-11-25T04:00:49;28.1;;;9.4;;
48891;SDS011;50130;52.150;5.236;2022-11-25T04:02:27;27.6;;;8.5;;
48891;SDS011;50130;52.150;5.236;2022-11-25T04:05:40;27.6;;;8.81;;
48891;SDS011;50130;52.150;5.236;2022-11-25T04:07:16;31.4;;;8.6;;
48891;SDS011;50130;52.150;5.236;2022-11-25T04:08:52;18.61;;;6.2;;
48891;SDS011;50130;52.150;5.236;2022-11-25T04:13:09;28.4;;;8.0;;
48891;SDS011;50130;52.150;5.236;2022-11-25T04:14:46;29.9;;;7.9;;
48891;SDS011;50130;52.150;5.236;2022-11-25T04:16:23;27.1;;;7.6;;
48891;SDS011;50130;52.150;5.236;2022-11-25T04:18:01;25.1;;;7.8;;
48891;SDS011;50130;52.150;5.236;2022-11-25T04:19:37;29.3;;;8.0;;
48891;SDS011;50130;52.150;5.236;2022-11-25T04:21:13;23.5;;;7.2;;
48891;SDS011;50130;52.150;5.236;2022-11-25T04:24:25;28.8;;;7.7;;
48891;SDS011;50130;52.150;5.236;2022-11-25T04:26:02;19.5;;;5.4;;
48891;SDS011;50130;52.150;5.236;2022-11-25T04:27:39;25.6;;;7.1;;
48891;SDS011;50130;52.150;5.236;2022-11-25T04:30:52;16.2;;;5.2;;
48891;SDS011;50130;52.150;5.236;2022-11-25T04:35:41;25.2;;;6.7;;
48891;SDS011;50130;52.150;5.236;2022-11-25T04:38:53;16.5;;;5.3;;
48891;SDS011;50130;52.150;5.236;2022-11-25T04:40:29;12.7;;;4.1;;
48891;SDS011;50130;52.150;5.236;2022-11-25T04:44:14;13.6;;;4.0;;
48891;SDS011;50130;52.150;5.236;2022-11-25T04:47:28;15.8;;;4.1;;
48891;SDS011;50130;52.150;5.236;2022-11-25T04:49:05;8.9;;;3.1;;
48891;SDS011;50130;52.150;5.236;2022-11-25T04:50:42;11.7;;;3.4;;
48891;SDS011;50130;52.150;5.236;2022-11-25T04:53:56;14.2;;;4.0;;
48891;SDS011;50130;52.150;5.236;2022-11-25T04:55:32;12.1;;;3.6;;
48891;SDS011;50130;52.150;5.236;2022-11-25T04:57:09;12.0;;;3.6;;
48891;SDS011;50130;52.150;5.236;2022-11-25T05:01:28;12.9;;;3.5;;
48891;SDS011;50130;52.150;5.236;2022-11-25T05:03:06;13.3;;;3.4;;
48891;SDS011;50130;52.150;5.236;2022-11-25T05:06:22;11.1;;;3.5;;
48891;SDS011;50130;52.150;5.236;2022-11-25T05:07:59;11.5;;;3.1;;
48891;SDS011;50130;52.150;5.236;2022-11-25T05:09:36;9.81;;;2.8;;
48891;SDS011;50130;52.150;5.236;2022-11-25T05:14:25;9.21;;;2.4;;
48891;SDS011;50130;52.150;5.236;2022-11-25T05:16:01;7.3;;;2.7;;
48891;SDS011;50130;52.150;5.236;2022-11-25T05:19:13;8.5;;;2.7;;
48891;SDS011;50130;52.150;5.236;2022-11-25T05:20:49;6.6;;;2.5;;
48891;SDS011;50130;52.150;5.236;2022-11-25T05:22:28;7.8;;;2.6;;
48891;SDS011;50130;52.150;5.236;2022-11-25T05:24:05;10.3;;;2.6;;
48891;SDS011;50130;52.150;5.236;2022-11-25T05:27:18;7.2;;;2.5;;
48891;SDS011;50130;52.150;5.236;2022-11-25T05:28:55;8.31;;;2.7;;
48891;SDS011;50130;52.150;5.236;2022-11-25T05:30:31;9.71;;;2.9;;
48891;SDS011;50130;52.150;5.236;2022-11-25T05:33:43;10.0;;;2.6;;
48891;SDS011;50130;52.150;5.236;2022-11-25T05:35:20;9.1;;;2.8;;
48891;SDS011;50130;52.150;5.236;2022-11-25T05:36:57;10.5;;;2.8;;
48891;SDS011;50130;52.150;5.236;2022-11-25T05:40:10;9.0;;;2.4;;
48891;SDS011;50130;52.150;5.236;2022-11-25T05:41:47;9.1;;;2.5;;
48891;SDS011;50130;52.150;5.236;2022-11-25T05:43:23;7.7;;;2.4;;
48891;SDS011;50130;52.150;5.236;2022-11-25T05:45:00;9.0;;;2.9;;
48891;SDS011;50130;52.150;5.236;2022-11-25T05:48:14;10.21;;;3.3;;
48891;SDS011;50130;52.150;5.236;2022-11-25T05:49:50;7.7;;;2.4;;
48891;SDS011;50130;52.150;5.236;2022-11-25T05:51:27;10.5;;;3.0;;
48891;SDS011;50130;52.150;5.236;2022-11-25T05:54:40;9.1;;;2.9;;
48891;SDS011;50130;52.150;5.236;2022-11-25T05:56:16;9.31;;;3.5;;
48891;SDS011;50130;52.150;5.236;2022-11-25T05:57:52;8.0;;;2.31;;
48891;SDS011;50130;52.150;5.236;2022-11-25T06:01:05;8.31;;;3.1;;
48891;SDS011;50130;52.150;5.236;2022-11-25T06:02:43;8.81;;;2.8;;
48891;SDS011;50130;52.150;5.236;2022-11-25T06:04:19;10.0;;;3.4;;
48891;SDS011;50130;52.150;5.236;2022-11-25T06:05:55;10.6;;;3.5;;
48891;SDS011;50130;52.150;5.236;2022-11-25T06:09:09;12.2;;;3.6;;
48891;SDS011;50130;52.150;5.236;2022-11-25T06:10:45;9.6;;;3.4;;
48891;SDS011;50130;52.150;5.236;2022-11-25T06:12:21;11.1;;;3.4;;
48891;SDS011;50130;52.150;5.236;2022-11-25T06:15:33;12.7;;;4.0;;
48891;SDS011;50130;52.150;5.236;2022-11-25T06:17:15;12.6;;;4.2;;
48891;SDS011;50130;52.150;5.236;2022-11-25T06:18:51;11.3;;;4.1;;
48891;SDS011;50130;52.150;5.236;2022-11-25T06:20:28;10.21;;;3.7;;
48891;SDS011;50130;52.150;5.236;2022-11-25T06:23:40;9.6;;;3.5;;
48891;SDS011;50130;52.150;5.236;2022-11-25T06:25:16;7.7;;;2.9;;
48891;SDS011;50130;52.150;5.236;2022-11-25T06:26:52;9.1;;;3.4;;
48891;SDS011;50130;52.150;5.236;2022-11-25T06:30:05;10.3;;;4.0;;
48891;SDS011;50130;52.150;5.236;2022-11-25T06:31:42;10.0;;;3.4;;
48891;SDS011;50130;52.150;5.236;2022-11-25T06:33:18;9.5;;;3.6;;
48891;SDS011;50130;52.150;5.236;2022-11-25T06:36:31;8.81;;;3.8;;
48891;SDS011;50130;52.150;5.236;2022-11-25T06:38:07;11.2;;;3.8;;
48891;SDS011;50130;52.150;5.236;2022-11-25T06:39:43;9.4;;;4.7;;
48891;SDS011;50130;52.150;5.236;2022-11-25T06:42:57;10.8;;;4.3;;
48891;SDS011;50130;52.150;5.236;2022-11-25T06:44:34;10.8;;;4.2;;
48891;SDS011;50130;52.150;5.236;2022-11-25T06:46:10;10.7;;;4.0;;
48891;SDS011;50130;52.150;5.236;2022-11-25T06:47:51;10.7;;;5.4;;
48891;SDS011;50130;52.150;5.236;2022-11-25T06:51:05;12.4;;;5.3;;
48891;SDS011;50130;52.150;5.236;2022-11-25T06:52:45;9.4;;;3.9;;
48891;SDS011;50130;52.150;5.236;2022-11-25T06:54:22;9.1;;;3.7;;
48891;SDS011;50130;52.150;5.236;2022-11-25T06:57:45;13.5;;;5.2;;
48891;SDS011;50130;52.150;5.236;2022-11-25T06:59:21;12.7;;;5.2;;
48891;SDS011;50130;52.150;5.236;2022-11-25T07:00:59;12.1;;;5.4;;
48891;SDS011;50130;52.150;5.236;2022-11-25T07:02:37;10.8;;;4.8;;
48891;SDS011;50130;52.150;5.236;2022-11-25T07:05:49;12.9;;;5.8;;
48891;SDS011;50130;52.150;5.236;2022-11-25T07:07:25;11.6;;;5.4;;
48891;SDS011;50130;52.150;5.236;2022-11-25T07:09:02;14.7;;;6.5;;
48891;SDS011;50130;52.150;5.236;2022-11-25T07:10:39;12.3;;;5.4;;
48891;SDS011;50130;52.150;5.236;2022-11-25T07:13:53;13.0;;;5.8;;
48891;SDS011;50130;52.150;5.236;2022-11-25T07:15:32;18.11;;;6.9;;
48891;SDS011;50130;52.150;5.236;2022-11-25T07:17:09;17.41;;;6.7;;
48891;SDS011;50130;52.150;5.236;2022-11-25T07:20:24;16.11;;;6.5;;
48891;SDS011;50130;52.150;5.236;2022-11-25T07:22:00;12.9;;;5.5;;
48891;SDS011;50130;52.150;5.236;2022-11-25T07:23:37;15.2;;;6.1;;
48891;SDS011;50130;52.150;5.236;2022-11-25T07:26:51;16.61;;;7.2;;
48891;SDS011;50130;52.150;5.236;2022-11-25T07:28:28;15.2;;;7.0;;
48891;SDS011;50130;52.150;5.236;2022-11-25T07:30:04;13.0;;;6.2;;
48891;SDS011;50130;52.150;5.236;2022-11-25T07:31:43;16.4;;;7.2;;
48891;SDS011;50130;52.150;5.236;2022-11-25T07:34:57;12.5;;;6.7;;
48891;SDS011;50130;52.150;5.236;2022-11-25T07:36:33;13.9;;;6.7;;
48891;SDS011;50130;52.150;5.236;2022-11-25T07:38:10;15.9;;;7.8;;
48891;SDS011;50130;52.150;5.236;2022-11-25T07:41:23;15.7;;;7.4;;
48891;SDS011;50130;52.150;5.236;2022-11-25T07:43:01;12.2;;;5.9;;
48891;SDS011;50130;52.150;5.236;2022-11-25T07:44:39;12.3;;;6.0;;
48891;SDS011;50130;52.150;5.236;2022-11-25T07:46:16;14.0;;;7.6;;
48891;SDS011;50130;52.150;5.236;2022-11-25T07:49:30;18.91;;;9.21;;
48891;SDS011;50130;52.150;5.236;2022-11-25T07:51:12;14.9;;;7.4;;
48891;SDS011;50130;52.150;5.236;2022-11-25T07:52:49;12.9;;;6.7;;
48891;SDS011;50130;52.150;5.236;2022-11-25T07:56:01;14.0;;;7.7;;
48891;SDS011;50130;52.150;5.236;2022-11-25T07:57:38;13.3;;;6.9;;
48891;SDS011;50130;52.150;5.236;2022-11-25T07:59:15;15.0;;;7.0;;
48891;SDS011;50130;52.150;5.236;2022-11-25T08:00:54;18.41;;;8.4;;
48891;SDS011;50130;52.150;5.236;2022-11-25T08:04:08;18.61;;;8.31;;
48891;SDS011;50130;52.150;5.236;2022-11-25T08:05:47;15.2;;;7.0;;
48891;SDS011;50130;52.150;5.236;2022-11-25T08:07:23;17.7;;;8.31;;
48891;SDS011;50130;52.150;5.236;2022-11-25T08:10:38;17.91;;;9.1;;
48891;SDS011;50130;52.150;5.236;2022-11-25T08:12:14;15.9;;;6.5;;
48891;SDS011;50130;52.150;5.236;2022-11-25T08:13:50;16.11;;;6.5;;
48891;SDS011;50130;52.150;5.236;2022-11-25T08:17:05;21.6;;;10.3;;
48891;SDS011;50130;52.150;5.236;2022-11-25T08:18:41;16.5;;;7.2;;
48891;SDS011;50130;52.150;5.236;2022-11-25T08:20:18;22.5;;;8.5;;
48891;SDS011;50130;52.150;5.236;2022-11-25T08:21:54;16.7;;;7.1;;
48891;SDS011;50130;52.150;5.236;2022-11-25T08:25:08;17.5;;;6.4;;
48891;SDS011;50130;52.150;5.236;2022-11-25T08:26:45;16.3;;;7.6;;
48891;SDS011;50130;52.150;5.236;2022-11-25T08:28:22;16.9;;;7.1;;
48891;SDS011;50130;52.150;5.236;2022-11-25T08:31:36;17.3;;;7.9;;
48891;SDS011;50130;52.150;5.236;2022-11-25T08:33:14;16.11;;;7.2;;
48891;SDS011;50130;52.150;5.236;2022-11-25T08:34:51;19.8;;;8.1;;
48891;SDS011;50130;52.150;5.236;2022-11-25T08:36:27;21.9;;;9.81;;
48891;SDS011;50130;52.150;5.236;2022-11-25T08:39:50;18.0;;;8.81;;
48891;SDS011;50130;52.150;5.236;2022-11-25T08:41:27;20.3;;;8.5;;
48891;SDS011;50130;52.150;5.236;2022-11-25T08:43:06;19.2;;;8.6;;
48891;SDS011;50130;52.150;5.236;2022-11-25T08:46:19;16.9;;;7.7;;
48891;SDS011;50130;52.150;5.236;2022-11-25T08:48:01;17.0;;;8.1;;
48891;SDS011;50130;52.150;5.236;2022-11-25T08:49:37;19.2;;;8.5;;
48891;SDS011;50130;52.150;5.236;2022-11-25T08:51:15;15.6;;;7.9;;
48891;SDS011;50130;52.150;5.236;2022-11-25T08:54:29;20.3;;;8.5;;
48891;SDS011;50130;52.150;5.236;2022-11-25T08:56:05;23.6;;;8.5;;
48891;SDS011;50130;52.150;5.236;2022-11-25T08:57:43;21.9;;;9.21;;
48891;SDS011;50130;52.150;5.236;2022-11-25T09:00:57;17.5;;;8.81;;
48891;SDS011;50130;52.150;5.236;2022-11-25T09:02:34;16.7;;;8.1;;
48891;SDS011;50130;52.150;5.236;2022-11-25T09:04:10;15.3;;;6.9;;
48891;SDS011;50130;52.150;5.236;2022-11-25T09:05:47;17.5;;;7.1;;
48891;SDS011;50130;52.150;5.236;2022-11-25T09:09:01;16.8;;;7.1;;
48891;SDS011;50130;52.150;5.236;2022-11-25T09:10:38;18.61;;;7.4;;
48891;SDS011;50130;52.150;5.236;2022-11-25T09:12:15;16.0;;;6.5;;
48891;SDS011;50130;52.150;5.236;2022-11-25T09:15:29;14.0;;;5.9;;
48891;SDS011;50130;52.150;5.236;2022-11-25T09:17:08;14.5;;;5.9;;
48891;SDS011;50130;52.150;5.236;2022-11-25T09:18:44;16.5;;;6.7;;
48891;SDS011;50130;52.150;5.236;2022-11-25T09:20:21;16.4;;;5.9;;
48891;SDS011;50130;52.150;5.236;2022-11-25T09:23:34;14.6;;;5.6;;
48891;SDS011;50130;52.150;5.236;2022-11-25T09:25:10;13.7;;;6.0;;
48891;SDS011;50130;52.150;5.236;2022-11-25T09:26:48;16.3;;;6.4;;
48891;SDS011;50130;52.150;5.236;2022-11-25T09:30:02;11.9;;;5.3;;
48891;SDS011;50130;52.150;5.236;2022-11-25T09:31:39;14.3;;;6.0;;
48891;SDS011;50130;52.150;5.236;2022-11-25T09:33:15;16.9;;;6.2;;
48891;SDS011;50130;52.150;5.236;2022-11-25T09:36:28;13.7;;;4.91;;
48891;SDS011;50130;52.150;5.236;2022-11-25T09:38:04;13.7;;;5.7;;
48891;SDS011;50130;52.150;5.236;2022-11-25T09:39:41;19.5;;;7.2;;
48891;SDS011;50130;52.150;5.236;2022-11-25T09:48:18;13.5;;;5.2;;
48891;SDS011;50130;52.150;5.236;2022-11-25T09:50:13;14.4;;;5.6;;
48891;SDS011;50130;52.150;5.236;2022-11-25T09:52:00;15.0;;;5.9;;
48891;SDS011;50130;52.150;5.236;2022-11-25T09:55:28;15.0;;;5.9;;
48891;SDS011;50130;52.150;5.236;2022-11-25T09:57:17;15.1;;;5.0;;
48891;SDS011;50130;52.150;5.236;2022-11-25T09:58:57;13.0;;;5.0;;
48891;SDS011;50130;52.150;5.236;2022-11-25T10:00:40;15.5;;;5.6;;
48891;SDS011;50130;52.150;5.236;2022-11-25T10:02:20;13.7;;;4.7;;
48891;SDS011;50130;52.150;5.236;2022-11-25T10:05:48;15.7;;;5.0;;
48891;SDS011;50130;52.150;5.236;2022-11-25T10:07:34;15.2;;;5.2;;
48891;SDS011;50130;52.150;5.236;2022-11-25T10:09:14;14.5;;;5.3;;
48891;SDS011;50130;52.150;5.236;2022-11-25T10:10:56;14.7;;;4.7;;
48891;SDS011;50130;52.150;5.236;2022-11-25T10:14:23;13.1;;;4.5;;
48891;SDS011;50130;52.150;5.236;2022-11-25T10:16:13;12.7;;;4.1;;
48891;SDS011;50130;52.150;5.236;2022-11-25T10:19:56;9.6;;;3.8;;
48891;SDS011;50130;52.150;5.236;2022-11-25T10:21:38;11.8;;;4.0;;
48891;SDS011;50130;52.150;5.236;2022-11-25T10:23:17;12.6;;;4.1;;
48891;SDS011;50130;52.150;5.236;2022-11-25T10:26:50;15.6;;;4.41;;
48891;SDS011;50130;52.150;5.236;2022-11-25T10:28:35;14.8;;;4.2;;
48891;SDS011;50130;52.150;5.236;2022-11-25T10:30:16;12.4;;;3.7;;
48891;SDS011;50130;52.150;5.236;2022-11-25T10:31:58;11.1;;;4.0;;
48891;SDS011;50130;52.150;5.236;2022-11-25T10:33:54;13.4;;;4.3;;
48891;SDS011;50130;52.150;5.236;2022-11-25T10:37:16;13.3;;;3.6;;
48891;SDS011;50130;52.150;5.236;2022-11-25T10:39:05;11.3;;;3.6;;
48891;SDS011;50130;52.150;5.236;2022-11-25T10:40:48;13.2;;;4.0;;
48891;SDS011;50130;52.150;5.236;2022-11-25T10:42:27;12.5;;;3.8;;
48891;SDS011;50130;52.150;5.236;2022-11-25T10:44:04;13.7;;;4.41;;
48891;SDS011;50130;52.150;5.236;2022-11-25T10:47:56;14.3;;;4.2;;
48891;SDS011;50130;52.150;5.236;2022-11-25T10:49:59;13.0;;;4.41;;
48891;SDS011;50130;52.150;5.236;2022-11-25T10:51:44;15.5;;;5.0;;
48891;SDS011;50130;52.150;5.236;2022-11-25T10:53:23;17.41;;;5.0;;
48891;SDS011;50130;52.150;5.236;2022-11-25T10:55:08;13.7;;;4.8;;
48891;SDS011;50130;52.150;5.236;2022-11-25T10:56:48;13.3;;;4.5;;
48891;SDS011;50130;52.150;5.236;2022-11-25T11:00:22;15.8;;;4.7;;
48891;SDS011;50130;52.150;5.236;2022-11-25T11:02:11;14.1;;;4.91;;
48891;SDS011;50130;52.150;5.236;2022-11-25T11:03:54;15.5;;;4.91;;
48891;SDS011;50130;52.150;5.236;2022-11-25T11:05:43;14.4;;;5.2;;
48891;SDS011;50130;52.150;5.236;2022-11-25T11:07:22;22.1;;;5.8;;
48891;SDS011;50130;52.150;5.236;2022-11-25T11:10:36;14.5;;;4.7;;
48891;SDS011;50130;52.150;5.236;2022-11-25T11:12:14;15.6;;;5.0;;
48891;SDS011;50130;52.150;5.236;2022-11-25T11:13:58;16.2;;;4.5;;
48891;SDS011;50130;52.150;5.236;2022-11-25T11:15:49;14.7;;;5.11;;
48891;SDS011;50130;52.150;5.236;2022-11-25T11:19:19;13.8;;;5.0;;
48891;SDS011;50130;52.150;5.236;2022-11-25T11:21:04;19.41;;;5.11;;
48891;SDS011;50130;52.150;5.236;2022-11-25T11:22:46;14.6;;;5.0;;
48891;SDS011;50130;52.150;5.236;2022-11-25T11:24:28;14.7;;;5.11;;
48891;SDS011;50130;52.150;5.236;2022-11-25T11:26:09;16.7;;;4.8;;
48891;SDS011;50130;52.150;5.236;2022-11-25T11:27:58;13.2;;;4.91;;
48891;SDS011;50130;52.150;5.236;2022-11-25T11:31:14;14.9;;;4.8;;
48891;SDS011;50130;52.150;5.236;2022-11-25T11:32:55;15.6;;;4.5;;
48891;SDS011;50130;52.150;5.236;2022-11-25T11:34:39;16.61;;;4.91;;
48891;SDS011;50130;52.150;5.236;2022-11-25T11:36:33;16.61;;;4.91;;
48891;SDS011;50130;52.150;5.236;2022-11-25T11:40:38;17.0;;;4.41;;
48891;SDS011;50130;52.150;5.236;2022-11-25T11:42:18;13.7;;;4.61;;
48891;SDS011;50130;52.150;5.236;2022-11-25T11:44:08;15.6;;;5.3;;
48891;SDS011;50130;52.150;5.236;2022-11-25T11:45:58;16.11;;;4.61;;
48891;SDS011;50130;52.150;5.236;2022-11-25T11:47:56;15.9;;;4.8;;
48891;SDS011;50130;52.150;5.236;2022-11-25T11:49:50;12.9;;;4.41;;
48891;SDS011;50130;52.150;5.236;2022-11-25T11:51:43;16.0;;;4.7;;
48891;SDS011;50130;52.150;5.236;2022-11-25T11:53:30;17.5;;;4.61;;
48891;SDS011;50130;52.150;5.236;2022-11-25T11:55:19;15.6;;;4.1;;
48891;SDS011;50130;52.150;5.236;2022-11-25T11:59:08;18.11;;;4.61;;
48891;SDS011;50130;52.150;5.236;2022-11-25T12:01:53;19.41;;;4.2;;
48891;SDS011;50130;52.150;5.236;2022-11-25T12:03:50;15.0;;;4.41;;
48891;SDS011;50130;52.150;5.236;2022-11-25T12:07:12;16.11;;;4.41;;
48891;SDS011;50130;52.150;5.236;2022-11-25T12:08:59;14.9;;;4.1;;
48891;SDS011;50130;52.150;5.236;2022-11-25T12:10:40;14.9;;;4.0;;
48891;SDS011;50130;52.150;5.236;2022-11-25T12:12:23;17.3;;;3.8;;
48891;SDS011;50130;52.150;5.236;2022-11-25T12:14:11;17.7;;;4.1;;
48891;SDS011;50130;52.150;5.236;2022-11-25T12:16:07;17.41;;;4.1;;
48891;SDS011;50130;52.150;5.236;2022-11-25T12:19:35;19.3;;;4.7;;
48891;SDS011;50130;52.150;5.236;2022-11-25T12:21:24;17.7;;;4.2;;
48891;SDS011;50130;52.150;5.236;2022-11-25T12:23:12;16.2;;;3.8;;
48891;SDS011;50130;52.150;5.236;2022-11-25T12:24:58;16.4;;;3.9;;
48891;SDS011;50130;52.150;5.236;2022-11-25T12:26:43;14.5;;;3.9;;
48891;SDS011;50130;52.150;5.236;2022-11-25T12:30:14;18.5;;;4.0;;
48891;SDS011;50130;52.150;5.236;2022-11-25T12:31:55;17.41;;;4.0;;
48891;SDS011;50130;52.150;5.236;2022-11-25T12:33:45;18.91;;;3.7;;
48891;SDS011;50130;52.150;5.236;2022-11-25T12:35:34;14.3;;;3.4;;
48891;SDS011;50130;52.150;5.236;2022-11-25T12:37:24;16.11;;;4.0;;
48891;SDS011;50130;52.150;5.236;2022-11-25T12:39:10;18.41;;;4.0;;
48891;SDS011;50130;52.150;5.236;2022-11-25T12:42:46;13.6;;;3.3;;
48891;SDS011;50130;52.150;5.236;2022-11-25T12:44:25;17.0;;;3.9;;
48891;SDS011;50130;52.150;5.236;2022-11-25T12:46:12;18.8;;;3.8;;
48891;SDS011;50130;52.150;5.236;2022-11-25T12:48:01;18.41;;;3.7;;
48891;SDS011;50130;52.150;5.236;2022-11-25T12:49:39;18.8;;;4.1;;
48891;SDS011;50130;52.150;5.236;2022-11-25T12:53:17;12.6;;;3.4;;
48891;SDS011;50130;52.150;5.236;2022-11-25T12:55:05;15.5;;;4.3;;
48891;SDS011;50130;52.150;5.236;2022-11-25T12:56:52;19.3;;;4.0;;
48891;SDS011;50130;52.150;5.236;2022-11-25T12:58:59;17.11;;;3.7;;
48891;SDS011;50130;52.150;5.236;2022-11-25T13:02:13;17.11;;;3.7;;
48891;SDS011;50130;52.150;5.236;2022-11-25T13:04:22;20.11;;;4.2;;
48891;SDS011;50130;52.150;5.236;2022-11-25T13:07:07;21.3;;;4.0;;
48891;SDS011;50130;52.150;5.236;2022-11-25T13:09:13;18.41;;;4.2;;
48891;SDS011;50130;52.150;5.236;2022-11-25T13:11:11;21.1;;;4.8;;
48891;SDS011;50130;52.150;5.236;2022-11-25T13:13:10;19.3;;;4.3;;